Time;durP1;ratioP1;P1;durP2;ratioP2;P2;SDS_P1;SDS_P2;PMS_P1;PMS_P2;Temp;Humidity;BMP_temperature;BMP_pressure;BME280_temperature;BME280_humidity;BME280_pressure;Samples;Min_cycle;Max_cycle;Signal;HPM_P1;HPM_P2
2021/06/14 00:01:20;;;;;;;1.75;1.58;;;27.00;45.10;;;;;;6198353;28;20555;-77
2021/06/14 00:04:21;;;;;;;3.55;1.73;;;26.90;45.20;;;;;;6176369;28;20039;-77
2021/06/14 00:07:23;;;;;;;2.83;1.90;;;26.90;45.30;;;;;;6230941;28;20126;-78
2021/06/14 00:10:27;;;;;;;2.50;1.98;;;26.90;45.40;;;;;;6195466;28;20042;-77
2021/06/14 00:13:28;;;;;;;2.40;1.80;;;26.90;45.40;;;;;;6199563;28;20034;-76
2021/06/14 00:16:30;;;;;;;2.30;1.90;;;26.80;45.30;;;;;;6195728;28;20069;-76
2021/06/14 00:19:31;;;;;;;2.03;1.83;;;26.80;45.30;;;;;;6204317;28;20046;-76
2021/06/14 00:22:32;;;;;;;2.80;2.00;;;26.80;45.90;;;;;;6202952;28;21216;-76
2021/06/14 00:25:34;;;;;;;5.18;2.20;;;26.80;45.40;;;;;;6203553;28;20061;-78
2021/06/14 00:28:37;;;;;;;3.67;2.55;;;26.70;45.60;;;;;;6202507;28;20050;-77
2021/06/14 00:31:39;;;;;;;8.75;2.47;;;26.70;45.80;;;;;;6203563;28;20057;-77
2021/06/14 00:34:40;;;;;;;2.95;2.15;;;26.70;45.90;;;;;;6202242;28;20034;-77
2021/06/14 00:37:42;;;;;;;3.10;2.13;;;26.60;45.90;;;;;;6178546;28;20038;-78
2021/06/14 00:40:44;;;;;;;5.55;2.10;;;26.60;46.10;;;;;;6184693;28;20026;-77
2021/06/14 00:43:46;;;;;;;3.63;2.17;;;26.60;46.20;;;;;;6202530;28;20027;-76
2021/06/14 00:46:47;;;;;;;3.25;2.22;;;26.60;46.70;;;;;;6219477;28;20034;-76
2021/06/14 00:49:48;;;;;;;3.03;2.15;;;26.60;47.00;;;;;;6226372;28;20041;-77
2021/06/14 00:52:50;;;;;;;3.63;2.28;;;26.60;47.40;;;;;;6202170;28;20044;-77
2021/06/14 00:55:53;;;;;;;6.93;2.35;;;26.50;47.50;;;;;;6218816;28;20045;-77
2021/06/14 00:58:56;;;;;;;5.82;2.53;;;26.50;47.80;;;;;;6218495;28;20033;-77
2021/06/14 01:01:57;;;;;;;6.13;2.15;;;26.50;47.80;;;;;;6214724;28;20065;-77
2021/06/14 01:04:58;;;;;;;4.32;2.60;;;26.50;48.00;;;;;;6203041;28;20046;-78
2021/06/14 01:08:01;;;;;;;4.10;2.58;;;26.50;48.30;;;;;;6200580;28;20430;-77
2021/06/14 01:11:53;;;;;;;2.80;2.00;;;26.50;48.70;;;;;;6194244;28;20345;-77
2021/06/14 01:15:02;;;;;;;3.28;2.30;;;26.40;49.50;;;;;;6154355;28;20539;-77
2021/06/14 01:18:07;;;;;;;7.68;2.42;;;26.40;49.10;;;;;;6156462;28;20039;-77
2021/06/14 01:21:15;;;;;;;3.72;2.30;;;26.30;49.30;;;;;;6155913;28;20472;-78
2021/06/14 01:24:28;;;;;;;3.38;2.25;;;26.30;49.40;;;;;;6156002;28;20105;-77
2021/06/14 01:27:44;;;;;;;2.40;2.13;;;26.20;49.50;;;;;;6166920;28;20057;-77
2021/06/14 01:30:54;;;;;;;3.22;2.30;;;26.20;49.30;;;;;;6182367;28;20034;-76
2021/06/14 01:33:57;;;;;;;4.22;2.42;;;26.20;49.20;;;;;;6145495;28;20035;-77
2021/06/14 01:37:00;;;;;;;4.80;1.98;;;26.20;49.20;;;;;;6133060;28;20073;-77
2021/06/14 01:40:03;;;;;;;2.80;2.22;;;26.10;49.40;;;;;;6162556;28;20045;-77
2021/06/14 01:43:10;;;;;;;3.83;2.35;;;26.10;49.60;;;;;;6177085;28;20038;-77
2021/06/14 01:46:17;;;;;;;2.55;2.05;;;26.00;49.90;;;;;;6180771;28;20085;-78
2021/06/14 01:49:23;;;;;;;4.20;2.47;;;26.00;50.20;;;;;;6181466;28;20460;-77
2021/06/14 01:52:30;;;;;;;3.00;2.30;;;25.90;50.30;;;;;;6200920;28;20034;-77
2021/06/14 01:55:34;;;;;;;3.17;2.55;;;25.90;50.60;;;;;;6223438;28;20038;-77
2021/06/14 01:58:43;;;;;;;4.93;2.55;;;25.80;50.70;;;;;;6239243;28;20084;-77
2021/06/14 02:01:57;;;;;;;3.15;2.20;;;25.70;50.80;;;;;;6204841;28;20030;-77
2021/06/14 02:05:01;;;;;;;3.53;2.30;;;25.70;50.90;;;;;;6205511;28;20128;-77
2021/06/14 02:08:08;;;;;;;2.78;2.30;;;25.70;50.90;;;;;;6198180;28;20068;-77
2021/06/14 02:11:10;;;;;;;3.75;2.25;;;25.70;50.70;;;;;;6163819;28;20063;-77
2021/06/14 02:14:17;;;;;;;9.05;2.50;;;25.70;50.70;;;;;;6187051;28;20113;-77
2021/06/14 02:17:26;;;;;;;2.70;2.13;;;25.60;50.60;;;;;;6173648;28;20030;-77
2021/06/14 02:20:28;;;;;;;3.25;2.30;;;25.60;50.70;;;;;;6189880;28;20035;-77
2021/06/14 02:23:29;;;;;;;2.63;1.55;;;25.50;50.60;;;;;;6173052;28;20038;-77
2021/06/14 02:26:31;;;;;;;4.00;2.20;;;25.50;50.70;;;;;;6173329;28;20050;-77
2021/06/14 02:29:32;;;;;;;2.75;2.10;;;25.50;50.70;;;;;;6173653;28;20031;-77
2021/06/14 02:32:33;;;;;;;4.63;1.77;;;25.50;50.70;;;;;;6173971;28;20392;-77
2021/06/14 02:35:35;;;;;;;4.65;2.15;;;25.40;50.70;;;;;;6228292;28;20078;-77
2021/06/14 02:38:37;;;;;;;6.20;1.80;;;25.40;50.80;;;;;;6196145;28;20038;-77
2021/06/14 02:41:41;;;;;;;4.00;1.95;;;25.40;50.90;;;;;;6196785;28;20109;-78
2021/06/14 02:44:44;;;;;;;4.22;2.38;;;25.40;50.90;;;;;;6189400;28;20078;-77
2021/06/14 02:47:47;;;;;;;3.63;2.45;;;25.40;50.90;;;;;;6173851;28;20027;-77
2021/06/14 02:50:49;;;;;;;4.20;1.95;;;25.40;50.90;;;;;;6173941;28;20030;-76
2021/06/14 02:54:05;;;;;;;4.03;2.00;;;25.40;50.80;;;;;;6174125;28;20364;-77
2021/06/14 02:57:11;;;;;;;5.65;1.90;;;25.30;50.70;;;;;;6132662;28;20031;-76
2021/06/14 03:00:14;;;;;;;5.25;1.98;;;25.30;50.80;;;;;;6149092;28;20460;-77
2021/06/14 03:03:17;;;;;;;2.20;1.77;;;25.30;50.80;;;;;;6162327;28;20518;-77
2021/06/14 03:06:18;;;;;;;2.75;2.20;;;25.30;50.80;;;;;;6226589;28;20030;-77
2021/06/14 03:09:27;;;;;;;2.70;1.88;;;25.30;50.70;;;;;;6197897;28;20474;-77
2021/06/14 03:12:29;;;;;;;4.47;2.20;;;25.30;50.60;;;;;;6199772;28;20093;-78
2021/06/14 03:15:34;;;;;;;5.85;2.20;;;25.30;50.40;;;;;;6198829;28;20057;-78
2021/06/14 03:18:38;;;;;;;4.85;2.20;;;25.30;50.30;;;;;;6198644;28;20482;-77
2021/06/14 03:21:39;;;;;;;3.40;2.17;;;25.30;50.30;;;;;;6199856;28;20468;-75
2021/06/14 03:24:42;;;;;;;3.15;2.00;;;25.20;50.40;;;;;;6198265;28;20122;-78
2021/06/14 03:27:44;;;;;;;3.55;2.33;;;25.20;50.40;;;;;;6194092;28;20082;-77
2021/06/14 03:30:48;;;;;;;6.88;2.30;;;25.20;50.50;;;;;;6182846;28;20038;-77
2021/06/14 03:33:50;;;;;;;8.70;2.33;;;25.20;50.70;;;;;;6182087;28;20031;-78
2021/06/14 03:36:51;;;;;;;3.45;2.50;;;25.20;50.90;;;;;;6216866;28;20419;-78
2021/06/14 03:39:53;;;;;;;5.55;2.50;;;25.20;51.20;;;;;;6176257;28;20482;-78
2021/06/14 03:43:02;;;;;;;5.30;2.45;;;25.10;51.40;;;;;;6223613;28;20030;-77
2021/06/14 03:46:04;;;;;;;4.13;2.70;;;25.10;51.70;;;;;;6227500;28;20073;-78
2021/06/14 03:49:05;;;;;;;44.28;3.42;;;25.10;51.90;;;;;;6225450;28;20097;-77
2021/06/14 03:52:06;;;;;;;8.20;2.40;;;25.00;52.10;;;;;;6225090;28;20049;-77
2021/06/14 03:55:09;;;;;;;7.57;2.50;;;25.00;52.00;;;;;;6207167;28;20034;-77
2021/06/14 03:58:10;;;;;;;3.33;2.42;;;25.00;51.80;;;;;;6221588;28;20121;-77
2021/06/14 04:01:12;;;;;;;3.17;2.22;;;25.00;51.70;;;;;;6202977;28;20374;-76
2021/06/14 04:07:35;;;;;;;4.13;2.70;;;24.90;51.60;;;;;;6170728;28;20031;-77
2021/06/14 04:10:37;;;;;;;15.05;2.92;;;24.90;51.70;;;;;;6188404;28;20092;-78
2021/06/14 04:13:37;;;;;;;3.20;2.40;;;24.90;52.00;;;;;;6196808;28;20046;-77
2021/06/14 04:16:39;;;;;;;4.97;2.72;;;24.90;52.10;;;;;;6213251;28;20122;-77
2021/06/14 04:19:40;;;;;;;7.20;3.05;;;24.90;52.00;;;;;;6213417;28;20100;-77
2021/06/14 04:22:41;;;;;;;4.47;2.63;;;24.80;51.80;;;;;;6196582;28;20121;-78
2021/06/14 04:25:42;;;;;;;4.10;1.98;;;24.80;51.90;;;;;;6194428;28;20133;-77
2021/06/14 04:28:43;;;;;;;7.05;2.67;;;24.80;52.10;;;;;;6193677;28;20034;-77
2021/06/14 04:31:44;;;;;;;2.85;2.20;;;24.70;52.20;;;;;;6202372;28;20035;-78
2021/06/14 04:34:45;;;;;;;5.97;3.13;;;24.70;52.20;;;;;;6201076;28;20442;-77
2021/06/14 04:37:46;;;;;;;3.28;2.30;;;24.80;52.30;;;;;;6216581;28;20034;-77
2021/06/14 04:40:47;;;;;;;3.35;2.40;;;24.80;52.50;;;;;;6209084;28;20373;-78
2021/06/14 04:43:48;;;;;;;5.15;2.70;;;24.70;52.40;;;;;;6183565;28;20030;-77
2021/06/14 04:46:50;;;;;;;4.75;2.67;;;24.80;52.60;;;;;;6219596;28;20049;-78
2021/06/14 04:49:51;;;;;;;8.65;2.92;;;24.70;52.80;;;;;;6184574;28;20038;-77
2021/06/14 04:52:52;;;;;;;3.33;2.22;;;24.70;53.00;;;;;;6222903;28;20060;-77
2021/06/14 04:55:53;;;;;;;4.72;2.55;;;24.70;53.00;;;;;;6219974;28;20059;-77
2021/06/14 04:58:54;;;;;;;9.32;2.53;;;24.70;53.00;;;;;;6219808;28;20034;-77
2021/06/14 05:01:55;;;;;;;3.38;2.90;;;24.70;52.90;;;;;;6220792;28;20045;-77
2021/06/14 05:04:57;;;;;;;4.28;2.60;;;24.70;53.00;;;;;;6199584;28;20128;-78
2021/06/14 05:07:58;;;;;;;5.07;2.83;;;24.70;53.10;;;;;;6209786;28;20101;-77
2021/06/14 05:10:59;;;;;;;11.50;3.92;;;24.70;53.10;;;;;;6219080;28;20444;-78
2021/06/14 05:14:01;;;;;;;3.15;2.47;;;24.70;53.10;;;;;;6199447;28;20093;-76
2021/06/14 05:17:02;;;;;;;8.85;3.10;;;24.80;53.10;;;;;;6199056;28;20042;-78
2021/06/14 05:20:05;;;;;;;10.20;2.95;;;24.80;53.10;;;;;;6200587;28;20034;-78
2021/06/14 05:23:07;;;;;;;12.18;2.70;;;24.80;53.00;;;;;;6194461;28;20039;-78
2021/06/14 05:26:08;;;;;;;3.67;2.15;;;24.90;52.90;;;;;;6198583;28;20050;-76
2021/06/14 05:29:09;;;;;;;8.40;2.78;;;24.90;52.70;;;;;;6184135;28;20090;-78
2021/06/14 05:32:10;;;;;;;34.28;3.42;;;24.90;52.50;;;;;;6190345;28;20450;-80
2021/06/14 05:35:12;;;;;;;10.70;2.97;;;25.00;52.30;;;;;;6218468;28;20440;-78
2021/06/14 05:38:13;;;;;;;6.97;2.60;;;25.00;51.80;;;;;;6223564;28;20038;-79
2021/06/14 05:41:14;;;;;;;7.10;2.42;;;25.10;51.40;;;;;;6221758;28;20367;-80
2021/06/14 05:44:17;;;;;;;4.75;2.33;;;25.20;51.20;;;;;;6233520;28;20136;-79
2021/06/14 05:47:18;;;;;;;3.42;2.60;;;25.20;50.90;;;;;;6222988;28;20049;-79
2021/06/14 05:50:19;;;;;;;8.20;2.72;;;25.20;50.70;;;;;;6192276;28;20041;-80
2021/06/14 05:53:21;;;;;;;9.50;2.53;;;25.10;50.60;;;;;;6191857;28;20022;-79
2021/06/14 05:56:23;;;;;;;33.92;3.92;;;25.20;50.70;;;;;;6224911;28;20490;-79
2021/06/14 05:59:30;;;;;;;7.22;2.90;;;25.20;50.70;;;;;;6223108;28;20301;-80
2021/06/14 06:02:31;;;;;;;6.80;3.05;;;25.20;50.70;;;;;;6210455;28;20027;-77
2021/06/14 06:05:32;;;;;;;36.92;4.05;;;25.20;50.70;;;;;;6198442;28;20053;-77
2021/06/14 06:08:33;;;;;;;36.28;6.18;;;24.90;51.30;;;;;;6197390;28;20053;-77
2021/06/14 06:11:34;;;;;;;5.53;3.13;;;24.50;52.10;;;;;;6202286;28;20034;-77
2021/06/14 06:14:36;;;;;;;358.55;19.52;;;24.30;52.80;;;;;;6223391;28;20121;-77
2021/06/14 06:17:37;;;;;;;99.13;8.02;;;24.20;53.10;;;;;;6221317;28;20074;-76
2021/06/14 06:20:38;;;;;;;139.05;10.15;;;24.20;53.30;;;;;;6220514;28;20052;-76
2021/06/14 06:23:39;;;;;;;119.75;9.70;;;24.30;53.40;;;;;;6222280;28;20041;-76
2021/06/14 06:26:40;;;;;;;24.88;3.72;;;24.30;53.30;;;;;;6222528;28;20041;-78
2021/06/14 06:29:42;;;;;;;16.30;3.53;;;24.40;53.20;;;;;;6221589;28;20054;-77
2021/06/14 06:32:44;;;;;;;149.32;10.10;;;24.50;52.70;;;;;;6212926;28;20054;-75
2021/06/14 06:35:45;;;;;;;5.20;2.50;;;24.60;52.50;;;;;;6197565;28;20050;-77
2021/06/14 06:38:46;;;;;;;26.30;3.97;;;24.70;52.30;;;;;;6198535;28;20121;-76
2021/06/14 06:41:47;;;;;;;57.47;6.32;;;24.80;52.00;;;;;;6195968;28;20056;-76
2021/06/14 06:44:48;;;;;;;43.22;6.22;;;25.00;51.70;;;;;;6196665;28;20053;-76
2021/06/14 06:47:50;;;;;;;11.88;3.63;;;25.10;51.40;;;;;;6195653;28;20368;-76
2021/06/14 06:50:51;;;;;;;36.28;4.78;;;25.20;51.10;;;;;;6185256;28;20435;-76
2021/06/14 06:54:10;;;;;;;19.38;4.65;;;25.30;50.70;;;;;;6171665;28;20037;-77
2021/06/14 06:57:13;;;;;;;8.25;3.17;;;25.40;50.60;;;;;;6193242;28;20039;-76
2021/06/14 07:00:17;;;;;;;45.72;8.65;;;25.50;50.30;;;;;;6194639;28;20034;-76
2021/06/14 07:03:18;;;;;;;30.00;5.10;;;25.70;50.20;;;;;;6194474;28;20058;-76
2021/06/14 07:06:19;;;;;;;11.82;4.07;;;25.80;49.80;;;;;;6196368;28;20125;-78
2021/06/14 07:09:20;;;;;;;22.30;3.97;;;26.00;49.60;;;;;;6187713;28;20038;-76
2021/06/14 07:12:21;;;;;;;50.33;6.45;;;26.10;49.30;;;;;;6194262;28;20042;-75
2021/06/14 07:15:22;;;;;;;43.83;4.90;;;26.20;49.10;;;;;;6194877;28;20041;-76
2021/06/14 07:18:23;;;;;;;627.83;47.33;;;26.30;48.70;;;;;;6194050;28;20038;-75
2021/06/14 07:21:24;;;;;;;80.45;8.63;;;26.40;48.70;;;;;;6194252;28;20030;-75
2021/06/14 07:24:25;;;;;;;1310.53;116.70;;;26.50;48.60;;;;;;6193527;28;20175;-75
2021/06/14 07:27:26;;;;;;;7.90;4.30;;;26.60;48.40;;;;;;6175049;28;20138;-75
2021/06/14 07:30:28;;;;;;;56.60;13.23;;;26.70;48.10;;;;;;6188996;28;20081;-75
2021/06/14 07:33:30;;;;;;;28.60;6.90;;;26.90;48.00;;;;;;6198977;28;20030;-76
2021/06/14 07:36:31;;;;;;;143.55;24.67;;;27.00;47.80;;;;;;6217641;28;20033;-75
2021/06/14 07:39:33;;;;;;;98.43;11.73;;;27.00;47.60;;;;;;6217722;28;20045;-76
2021/06/14 07:42:34;;;;;;;51.30;6.97;;;27.10;47.50;;;;;;6218308;28;20030;-75
2021/06/14 07:45:35;;;;;;;8.52;3.42;;;27.20;47.40;;;;;;6217753;28;20048;-75
2021/06/14 07:48:36;;;;;;;13.20;3.72;;;27.40;47.20;;;;;;6194621;28;20035;-76
2021/06/14 07:51:38;;;;;;;19.15;4.25;;;27.60;47.00;;;;;;6218954;28;20044;-75
2021/06/14 07:54:39;;;;;;;23.13;5.97;;;27.80;46.80;;;;;;6200832;28;20340;-75
2021/06/14 07:57:41;;;;;;;10.23;3.85;;;28.00;46.40;;;;;;6219469;28;20034;-75
2021/06/14 08:00:43;;;;;;;79.97;7.93;;;28.10;46.10;;;;;;6219851;28;22400;-75
2021/06/14 08:03:47;;;;;;;136.50;14.07;;;28.30;45.80;;;;;;6201374;28;20391;-75
2021/06/14 08:06:48;;;;;;;70.13;7.65;;;28.40;45.60;;;;;;6194945;28;20034;-75
2021/06/14 08:09:55;;;;;;;11.40;3.75;;;28.60;45.10;;;;;;6193064;28;20129;-76
2021/06/14 08:12:56;;;;;;;10.02;3.70;;;28.70;44.50;;;;;;6195040;28;20030;-76
2021/06/14 08:15:59;;;;;;;16.65;3.67;;;28.70;44.30;;;;;;6196621;28;20042;-76
2021/06/14 08:19:06;;;;;;;33.80;5.13;;;28.70;44.20;;;;;;6194871;28;20054;-75
2021/06/14 08:25:32;;;;;;;7.80;3.80;;;28.90;43.80;;;;;;6213984;28;20077;-76
2021/06/14 08:28:33;;;;;;;16.92;4.10;;;29.00;43.50;;;;;;6199526;28;20104;-74
2021/06/14 08:31:35;;;;;;;11.70;4.20;;;29.20;43.10;;;;;;6217897;28;20117;-75
2021/06/14 08:34:37;;;;;;;80.38;6.07;;;29.30;42.30;;;;;;6202023;28;20073;-76
2021/06/14 08:37:38;;;;;;;9.68;3.55;;;29.30;42.00;;;;;;6221314;28;20042;-75
2021/06/14 08:40:41;;;;;;;135.35;10.60;;;29.40;42.10;;;;;;6219982;28;20103;-75
2021/06/14 08:43:43;;;;;;;30.05;4.55;;;29.50;42.10;;;;;;6230127;28;20064;-75
2021/06/14 08:46:45;;;;;;;24.08;3.85;;;29.70;41.70;;;;;;6230064;28;20056;-76
2021/06/14 08:49:46;;;;;;;20.05;3.92;;;29.90;41.50;;;;;;6230460;28;20362;-75
2021/06/14 08:52:48;;;;;;;85.13;6.55;;;30.00;41.10;;;;;;6229844;28;20037;-76
2021/06/14 08:55:49;;;;;;;35.47;4.78;;;30.10;40.90;;;;;;6213109;28;20037;-76
2021/06/14 08:58:53;;;;;;;9.52;3.58;;;30.20;40.90;;;;;;6246188;28;20045;-76
2021/06/14 09:01:54;;;;;;;11.38;4.38;;;30.30;40.50;;;;;;6209956;28;20443;-75
2021/06/14 09:04:55;;;;;;;9.40;3.30;;;30.30;40.00;;;;;;6233025;28;20049;-75
2021/06/14 09:07:57;;;;;;;5.53;2.63;;;30.30;39.10;;;;;;6200288;28;20057;-76
2021/06/14 09:10:58;;;;;;;13.27;4.18;;;30.30;39.00;;;;;;6196376;28;20052;-77
2021/06/14 09:13:59;;;;;;;8.73;4.38;;;30.30;39.40;;;;;;6200144;28;20039;-75
2021/06/14 09:17:05;;;;;;;6.45;2.75;;;30.40;39.80;;;;;;6174840;28;20117;-75
2021/06/14 09:20:14;;;;;;;9.68;3.30;;;30.60;39.80;;;;;;6176050;28;20066;-76
2021/06/14 09:23:15;;;;;;;24.48;4.35;;;30.60;39.60;;;;;;6198178;28;20052;-76
2021/06/14 09:26:36;;;;;;;5.78;2.92;;;30.70;39.70;;;;;;6215375;28;20038;-75
2021/06/14 09:29:37;;;;;;;4.47;3.00;;;30.70;40.00;;;;;;6215253;28;20122;-75
2021/06/14 09:32:56;;;;;;;10.82;3.20;;;30.80;39.70;;;;;;6201592;28;20039;-77
2021/06/14 09:36:06;;;;;;;18.83;3.58;;;30.80;39.70;;;;;;6175249;28;20084;-75
2021/06/14 09:39:14;;;;;;;26.80;4.13;;;31.00;39.60;;;;;;6188784;28;20041;-76
2021/06/14 09:42:23;;;;;;;8.30;3.25;;;31.00;39.60;;;;;;6187585;28;20038;-74
2021/06/14 09:45:25;;;;;;;4.95;3.28;;;31.00;39.60;;;;;;6206535;28;20050;-76
2021/06/14 09:48:29;;;;;;;6.25;2.80;;;31.10;39.50;;;;;;6223940;28;20069;-79
2021/06/14 09:51:35;;;;;;;6.95;2.95;;;31.10;39.00;;;;;;6207411;28;20116;-80
2021/06/14 09:54:36;;;;;;;10.85;3.03;;;31.10;38.90;;;;;;6240783;28;20428;-75
2021/06/14 09:57:37;;;;;;;5.47;2.80;;;31.10;39.50;;;;;;6206450;28;20038;-76
2021/06/14 10:01:03;;;;;;;8.40;2.83;;;31.10;39.00;;;;;;6223718;28;20184;-76
2021/06/14 10:04:07;;;;;;;4.93;2.78;;;31.10;38.90;;;;;;6194591;28;20452;-76
2021/06/14 10:07:12;;;;;;;8.82;2.33;;;31.20;38.90;;;;;;6196927;28;20053;-76
2021/06/14 10:10:26;;;;;;;3.50;2.53;;;31.20;38.90;;;;;;6195123;28;20379;-75
2021/06/14 10:13:29;;;;;;;7.03;3.05;;;31.10;38.90;;;;;;6185057;28;20038;-75
2021/06/14 10:16:30;;;;;;;4.60;2.53;;;31.20;38.90;;;;;;6199794;28;20035;-74
2021/06/14 10:19:37;;;;;;;6.80;2.35;;;31.30;38.80;;;;;;6198678;28;20034;-77
2021/06/14 10:22:39;;;;;;;6.75;3.20;;;31.30;38.60;;;;;;6189802;28;20034;-76
2021/06/14 10:25:40;;;;;;;5.47;2.72;;;31.30;38.40;;;;;;6207548;28;20042;-75
2021/06/14 10:28:42;;;;;;;3.75;2.50;;;31.40;38.30;;;;;;6198206;28;20045;-75
2021/06/14 10:31:47;;;;;;;14.13;3.10;;;31.40;38.90;;;;;;6194589;28;20038;-76
2021/06/14 10:34:49;;;;;;;5.93;3.85;;;31.50;38.40;;;;;;6167178;28;20110;-75
2021/06/14 10:37:53;;;;;;;7.00;3.08;;;31.60;38.30;;;;;;6175876;28;20053;-75
2021/06/14 10:40:55;;;;;;;5.95;2.83;;;31.70;38.20;;;;;;6194688;28;20033;-75
2021/06/14 10:43:56;;;;;;;5.72;3.05;;;31.80;37.90;;;;;;6214781;28;20435;-76
2021/06/14 10:46:58;;;;;;;4.20;2.30;;;31.80;37.90;;;;;;6217894;28;20363;-76
2021/06/14 10:49:59;;;;;;;37.35;4.63;;;31.90;37.70;;;;;;6189183;28;20042;-76
2021/06/14 10:53:00;;;;;;;4.38;2.72;;;32.00;37.50;;;;;;6172774;28;20467;-76
2021/06/14 10:56:02;;;;;;;4.13;2.25;;;32.10;37.30;;;;;;6194057;28;20046;-76
2021/06/14 10:59:09;;;;;;;476.50;29.80;;;32.20;37.30;;;;;;6195845;28;20030;-77
2021/06/14 11:02:12;;;;;;;4.95;3.17;;;32.20;36.90;;;;;;6176637;28;20042;-75
2021/06/14 11:05:14;;;;;;;16.15;3.97;;;32.40;36.80;;;;;;6188339;28;20039;-77
2021/06/14 11:08:20;;;;;;;466.38;34.30;;;33.20;36.20;;;;;;6166133;28;20054;-76
2021/06/14 11:11:21;;;;;;;6.47;3.30;;;34.50;34.70;;;;;;6204042;28;20034;-75
2021/06/14 11:14:35;;;;;;;332.67;21.20;;;35.70;33.00;;;;;;6172385;28;20038;-76
2021/06/14 11:17:37;;;;;;;29.08;3.78;;;36.60;31.70;;;;;;6213889;28;20359;-76
2021/06/14 11:20:39;;;;;;;37.22;5.18;;;37.50;30.60;;;;;;6194847;28;20034;-76
2021/06/14 11:23:43;;;;;;;45.88;5.43;;;38.40;29.50;;;;;;6178351;28;20499;-77
2021/06/14 11:26:56;;;;;;;22.55;3.17;;;39.00;28.70;;;;;;6195375;28;20042;-76
2021/06/14 11:29:57;;;;;;;10.52;2.88;;;39.60;28.10;;;;;;6182321;28;20097;-76
2021/06/14 11:32:59;;;;;;;9.95;3.10;;;40.10;27.50;;;;;;6181788;28;20059;-76
2021/06/14 11:36:11;;;;;;;8.57;3.05;;;40.30;27.20;;;;;;6236735;28;20041;-76
2021/06/14 11:39:15;;;;;;;736.90;57.83;;;40.60;26.90;;;;;;6213011;28;20077;-75
2021/06/14 11:42:19;;;;;;;27.33;5.40;;;40.70;26.70;;;;;;6217430;28;20423;-77
2021/06/14 11:45:24;;;;;;;8.30;3.30;;;41.10;26.50;;;;;;6217299;28;20045;-76
2021/06/14 11:48:31;;;;;;;2.60;2.38;;;41.40;26.20;;;;;;6181917;28;20033;-76
2021/06/14 11:51:33;;;;;;;2.42;2.20;;;41.40;25.90;;;;;;6217827;28;20508;-76
2021/06/14 11:54:34;;;;;;;38.92;5.25;;;41.40;25.60;;;;;;6217454;28;20034;-76
2021/06/14 11:57:38;;;;;;;4.10;3.22;;;41.40;25.70;;;;;;6218393;28;20026;-77
2021/06/14 12:00:42;;;;;;;6.15;2.72;;;41.30;25.40;;;;;;6219358;28;20423;-77
2021/06/14 12:03:43;;;;;;;2.90;2.30;;;41.30;25.60;;;;;;6200754;28;20099;-76
2021/06/14 12:06:48;;;;;;;5.22;2.13;;;41.10;25.60;;;;;;6194940;28;20046;-77
2021/06/14 12:09:49;;;;;;;2.55;2.25;;;41.00;25.70;;;;;;6197030;28;20096;-76
2021/06/14 12:13:11;;;;;;;8.45;2.33;;;41.10;25.60;;;;;;6217632;28;20034;-76
2021/06/14 12:16:14;;;;;;;4.15;2.30;;;41.20;25.60;;;;;;6200146;28;20045;-76
2021/06/14 12:19:19;;;;;;;9.93;3.70;;;41.40;25.20;;;;;;6232116;28;20130;-76
2021/06/14 12:22:22;;;;;;;6.88;2.60;;;41.50;25.10;;;;;;6223529;28;20037;-77
2021/06/14 12:25:23;;;;;;;3.88;2.40;;;41.50;24.90;;;;;;6224161;28;20048;-76
2021/06/14 12:28:25;;;;;;;4.68;2.28;;;41.60;24.70;;;;;;6223936;28;20038;-77
2021/06/14 12:31:27;;;;;;;2.70;2.22;;;41.50;24.60;;;;;;6225092;28;20038;-76
2021/06/14 12:34:28;;;;;;;7.28;2.30;;;41.60;24.50;;;;;;6184488;28;20042;-77
2021/06/14 12:37:30;;;;;;;6.88;2.10;;;41.50;24.80;;;;;;6199627;28;20035;-77
2021/06/14 12:40:31;;;;;;;9.02;2.25;;;41.50;24.30;;;;;;6162845;28;20034;-77
2021/06/14 12:43:34;;;;;;;3.05;2.00;;;41.30;24.30;;;;;;6222341;28;20048;-77
2021/06/14 12:46:35;;;;;;;4.75;2.50;;;41.10;24.30;;;;;;6202463;28;20038;-76
2021/06/14 12:49:36;;;;;;;3.85;2.05;;;41.00;24.30;;;;;;6223451;28;20046;-76
2021/06/14 12:52:40;;;;;;;2.60;2.00;;;41.00;24.40;;;;;;6223686;28;20045;-77
2021/06/14 12:55:42;;;;;;;6.03;2.22;;;41.30;24.30;;;;;;6184557;28;20059;-76
2021/06/14 12:59:09;;;;;;;2.45;1.90;;;41.50;24.00;;;;;;6222394;28;20038;-77
2021/06/14 13:02:13;;;;;;;10.40;2.30;;;41.80;23.50;;;;;;6231974;28;20129;-77
2021/06/14 13:05:16;;;;;;;3.40;2.17;;;42.00;23.30;;;;;;6174710;28;20376;-77
2021/06/14 13:08:20;;;;;;;2.65;2.20;;;42.20;23.00;;;;;;6174683;28;20035;-77
2021/06/14 13:11:21;;;;;;;2.35;1.90;;;42.50;22.70;;;;;;6174867;28;20117;-77
2021/06/14 13:14:29;;;;;;;2.95;2.10;;;42.80;22.60;;;;;;6204652;28;20038;-77
2021/06/14 13:17:30;;;;;;;8.82;1.92;;;43.10;22.10;;;;;;6198809;28;20128;-77
2021/06/14 13:20:38;;;;;;;5.72;1.98;;;43.50;21.80;;;;;;6219479;28;20038;-77
2021/06/14 13:23:51;;;;;;;3.22;1.90;;;43.70;21.20;;;;;;6214612;28;20477;-76
2021/06/14 13:26:52;;;;;;;2.63;2.03;;;43.70;21.20;;;;;;6196198;28;20080;-77
2021/06/14 13:29:54;;;;;;;5.07;2.17;;;44.10;21.00;;;;;;6226254;28;20384;-77
2021/06/14 13:36:02;;;;;;;4.07;2.00;;;44.80;20.30;;;;;;6190115;28;20117;-77
2021/06/14 13:39:08;;;;;;;3.50;2.10;;;45.30;19.90;;;;;;6173897;28;20525;-77
2021/06/14 13:42:13;;;;;;;3.90;2.05;;;45.70;19.40;;;;;;6172289;28;20042;-77
2021/06/14 13:45:17;;;;;;;3.53;2.00;;;45.80;19.10;;;;;;6176195;28;20125;-77
2021/06/14 13:48:20;;;;;;;3.97;2.20;;;45.70;19.20;;;;;;6172972;28;20045;-76
2021/06/14 13:51:21;;;;;;;5.80;2.00;;;46.00;19.10;;;;;;6198936;28;20118;-76
2021/06/14 13:54:22;;;;;;;3.15;1.77;;;46.50;18.80;;;;;;6197659;28;20057;-76
2021/06/14 13:57:25;;;;;;;8.88;1.77;;;46.80;18.30;;;;;;6180036;28;20042;-77
2021/06/14 14:00:27;;;;;;;2.13;1.83;;;46.90;18.20;;;;;;6197058;28;20038;-77
2021/06/14 14:03:28;;;;;;;11.40;1.60;;;47.20;18.10;;;;;;6183176;28;20038;-77
2021/06/14 14:06:31;;;;;;;2.20;1.70;;;47.90;17.90;;;;;;6174635;28;20047;-75
2021/06/14 14:09:32;;;;;;;2.05;1.85;;;48.20;17.30;;;;;;6196874;28;20034;-76
2021/06/14 14:12:33;;;;;;;3.03;1.85;;;48.30;17.00;;;;;;6205155;28;20378;-76
2021/06/14 14:15:34;;;;;;;6.00;1.83;;;48.20;17.60;;;;;;6220538;28;20076;-76
2021/06/14 14:18:37;;;;;;;5.40;1.60;;;48.40;17.10;;;;;;6203724;28;20470;-75
2021/06/14 14:21:39;;;;;;;1.73;1.35;;;48.60;16.70;;;;;;6195799;28;20038;-76
2021/06/14 14:24:40;;;;;;;2.35;1.67;;;48.40;16.80;;;;;;6197072;28;20106;-76
2021/06/14 14:27:41;;;;;;;3.92;1.83;;;48.40;16.80;;;;;;6196811;28;20130;-76
2021/06/14 14:30:49;;;;;;;2.35;1.65;;;48.40;16.80;;;;;;6180719;28;20030;-76
2021/06/14 14:33:50;;;;;;;3.95;1.48;;;48.60;16.60;;;;;;6192358;28;20084;-76
2021/06/14 14:36:53;;;;;;;3.53;1.73;;;48.40;16.50;;;;;;6195956;28;20308;-76
2021/06/14 14:40:02;;;;;;;3.10;1.70;;;48.20;16.60;;;;;;6197010;28;20093;-75
2021/06/14 14:43:06;;;;;;;4.38;1.73;;;48.10;16.70;;;;;;6157685;28;20405;-75
2021/06/14 14:46:07;;;;;;;4.03;1.65;;;48.00;16.70;;;;;;6172648;28;20051;-75
2021/06/14 14:49:12;;;;;;;2.67;1.70;;;48.10;16.70;;;;;;6185304;28;20180;-75
2021/06/14 14:52:16;;;;;;;2.72;1.50;;;48.20;16.50;;;;;;6236918;28;20065;-76
2021/06/14 14:55:23;;;;;;;2.00;1.60;;;48.40;16.40;;;;;;6205370;28;20112;-76
2021/06/14 14:58:24;;;;;;;;;;;48.50;16.70;;;;;;6220337;28;20081;-75
2021/06/14 15:01:25;;;;;;;6.60;1.85;;;48.80;16.20;;;;;;6221975;28;20314;-76
2021/06/14 15:04:26;;;;;;;6.07;1.40;;;48.80;16.10;;;;;;6198919;28;20419;-76
2021/06/14 15:07:27;;;;;;;1.77;1.42;;;48.80;16.10;;;;;;6197477;28;20053;-76
2021/06/14 15:10:28;;;;;;;8.80;1.67;;;48.50;16.20;;;;;;6210072;28;20062;-76
2021/06/14 15:13:29;;;;;;;3.70;1.50;;;48.20;16.30;;;;;;6220614;28;20040;-76
2021/06/14 15:16:30;;;;;;;2.53;1.58;;;48.00;16.40;;;;;;6227492;28;20033;-75
2021/06/14 15:19:38;;;;;;;1.77;1.50;;;48.00;16.40;;;;;;6221658;28;20034;-76
2021/06/14 15:22:41;;;;;;;7.05;1.67;;;47.80;16.50;;;;;;6221365;28;20475;-76
2021/06/14 15:25:43;;;;;;;2.45;1.52;;;47.80;16.50;;;;;;6220056;28;20065;-76
2021/06/14 15:28:47;;;;;;;1.92;1.67;;;47.70;16.40;;;;;;6221677;28;20435;-74
2021/06/14 15:31:48;;;;;;;2.78;1.40;;;47.60;16.20;;;;;;6218356;28;20029;-76
2021/06/14 15:34:49;;;;;;;2.22;1.30;;;47.40;16.40;;;;;;6172257;28;20062;-75
2021/06/14 15:37:56;;;;;;;7.03;4.50;;;47.40;16.40;;;;;;6192710;28;20033;-75
2021/06/14 15:40:58;;;;;;;3.05;1.42;;;47.30;16.50;;;;;;6220634;28;20038;-75
2021/06/14 15:44:01;;;;;;;1.70;1.33;;;47.50;16.60;;;;;;6211082;28;20455;-76
2021/06/14 15:47:04;;;;;;;1.63;1.50;;;47.50;16.40;;;;;;6221820;28;20060;-76
2021/06/14 15:50:06;;;;;;;1.45;1.30;;;47.30;16.60;;;;;;6219583;28;20084;-75
2021/06/14 15:53:09;;;;;;;6.13;1.80;;;47.10;16.70;;;;;;6220266;28;20244;-76
2021/06/14 15:56:09;;;;;;;1.60;1.35;;;47.30;16.70;;;;;;6219891;28;20030;-75
2021/06/14 15:59:11;;;;;;;2.85;1.35;;;47.10;16.50;;;;;;6218033;28;20087;-75